createdAt,value
2022-09-15T00:01:44.236Z,99723.09
2022-09-15T00:03:47.403Z,99723.84
2022-09-15T00:05:50.708Z,99718.66
2022-09-15T00:07:53.603Z,99721.41
2022-09-15T00:09:58.009Z,99721.56
2022-09-15T00:12:00.930Z,99717.59
2022-09-15T00:14:05.908Z,99721.13
2022-09-15T00:16:15.839Z,99717.53
2022-09-15T00:18:18.838Z,99715.81
2022-09-15T00:20:22.768Z,99713.38
2022-09-15T00:22:26.268Z,99717.81
2022-09-15T00:24:29.206Z,99718.97
2022-09-15T00:26:33.752Z,99711.75
2022-09-15T00:28:37.057Z,99720.66
2022-09-15T00:30:44.046Z,99718.09
2022-09-15T00:32:46.975Z,99715.47
2022-09-15T00:34:51.040Z,99713.78
2022-09-15T00:36:53.917Z,99716.41
2022-09-15T00:38:57.632Z,99710.25
2022-09-15T00:41:01.960Z,99710.34
2022-09-15T00:43:10.616Z,99713.00
2022-09-15T00:45:17.301Z,99714.69
2022-09-15T00:47:22.498Z,99714.78
2022-09-15T00:49:27.124Z,99710.63
2022-09-15T00:51:35.041Z,99715.94
2022-09-15T00:53:38.236Z,99713.47
2022-09-15T00:55:44.439Z,99718.00
2022-09-15T00:57:52.263Z,99712.72
2022-09-15T00:59:58.239Z,99719.91
2022-09-15T01:02:04.898Z,99717.34
2022-09-15T01:04:07.810Z,99724.47
2022-09-15T01:06:17.158Z,99716.69
2022-09-15T01:08:25.052Z,99720.31
2022-09-15T01:10:29.247Z,99710.91
2022-09-15T01:12:32.170Z,99713.97
2022-09-15T01:14:35.297Z,99714.63
2022-09-15T01:16:48.145Z,99722.59
2022-09-15T01:18:56.415Z,99714.72
2022-09-15T01:21:08.996Z,99718.59
2022-09-15T01:23:36.425Z,99708.94
2022-09-15T01:25:54.430Z,99707.44
2022-09-15T01:28:20.064Z,99705.72
2022-09-15T01:30:24.536Z,99705.91
2022-09-15T01:32:47.906Z,99717.47
2022-09-15T01:34:56.801Z,99710.44
2022-09-15T01:37:03.524Z,99717.06
2022-09-15T01:39:11.927Z,99705.44
2022-09-15T01:41:17.969Z,99710.53
2022-09-15T01:43:22.200Z,99710.75
2022-09-15T01:45:30.593Z,99712.53
2022-09-15T01:47:34.050Z,99706.31
2022-09-15T01:49:40.082Z,99713.28
2022-09-15T01:51:43.543Z,99712.38
2022-09-15T01:53:47.249Z,99710.63
2022-09-15T01:55:54.045Z,99708.19
2022-09-15T01:57:56.972Z,99711.75
2022-09-15T02:00:00.680Z,99710.94
2022-09-15T02:02:06.679Z,99718.97
2022-09-15T02:04:12.991Z,99710.38
2022-09-15T02:06:21.938Z,99709.59
2022-09-15T02:08:27.787Z,99705.31
2022-09-15T02:10:35.176Z,99708.94
2022-09-15T02:12:42.239Z,99711.69
2022-09-15T02:14:49.229Z,99707.41
2022-09-15T02:16:55.070Z,99710.25
2022-09-15T02:19:08.816Z,99708.44
2022-09-15T02:21:15.217Z,99711.94
2022-09-15T02:23:19.941Z,99722.13
2022-09-15T02:25:28.724Z,99712.13
2022-09-15T02:27:37.476Z,99711.34
2022-09-15T02:29:41.144Z,99713.06
2022-09-15T02:31:45.441Z,99718.38
2022-09-15T02:33:50.954Z,99717.41
2022-09-15T02:35:55.321Z,99716.31
2022-09-15T02:37:59.626Z,99722.38
2022-09-15T02:40:03.190Z,99719.81
2022-09-15T02:42:25.267Z,99722.25
2022-09-15T02:44:30.565Z,99730.31
2022-09-15T02:46:34.072Z,99717.91
2022-09-15T02:48:37.191Z,99728.44
2022-09-15T02:50:41.207Z,99726.91
2022-09-15T02:52:45.590Z,99726.91
2022-09-15T02:54:48.828Z,99725.38
2022-09-15T02:56:54.391Z,99722.53
2022-09-15T02:58:57.236Z,99729.81
2022-09-15T03:01:02.819Z,99715.44
2022-09-15T03:03:05.839Z,99722.63
2022-09-15T03:05:10.142Z,99713.75
2022-09-15T03:07:13.123Z,99718.00
2022-09-15T03:09:17.401Z,99725.84
2022-09-15T03:11:21.889Z,99722.25
2022-09-15T03:13:24.783Z,99722.47
2022-09-15T03:15:28.051Z,99720.06
2022-09-15T03:17:35.236Z,99734.06
2022-09-15T03:19:38.412Z,99737.50
2022-09-15T03:21:41.354Z,99745.53
2022-09-15T03:23:44.631Z,99731.31
2022-09-15T03:25:48.967Z,99733.88
2022-09-15T03:27:51.829Z,99738.59
2022-09-15T03:29:54.797Z,99737.00
2022-09-15T03:31:57.836Z,99743.66
2022-09-15T03:34:00.760Z,99741.81
2022-09-15T03:36:04.186Z,99741.06
2022-09-15T03:38:07.130Z,99741.16
2022-09-15T03:40:11.323Z,99730.66
2022-09-15T03:42:15.642Z,99739.19
2022-09-15T03:44:18.563Z,99735.41
2022-09-15T03:46:22.189Z,99733.63
2022-09-15T03:48:25.545Z,99736.56
2022-09-15T03:50:29.158Z,99740.16
2022-09-15T03:52:32.935Z,99733.56
2022-09-15T03:54:36.084Z,99734.69
2022-09-15T03:56:39.566Z,99742.63
2022-09-15T03:58:43.844Z,99737.91
2022-09-15T04:00:47.337Z,99743.75
2022-09-15T04:02:50.615Z,99744.88
2022-09-15T04:04:53.552Z,99738.19
2022-09-15T04:06:56.420Z,99733.06
2022-09-15T04:09:00.134Z,99733.75
2022-09-15T04:11:05.687Z,99733.44
2022-09-15T04:13:08.903Z,99724.75
2022-09-15T04:15:13.161Z,99728.25
2022-09-15T04:17:16.178Z,99730.53
2022-09-15T04:19:19.087Z,99735.25
2022-09-15T04:21:23.371Z,99734.09
2022-09-15T04:23:26.411Z,99737.44
2022-09-15T04:25:29.484Z,99737.16
2022-09-15T04:27:34.399Z,99745.94
2022-09-15T04:29:40.164Z,99751.25
2022-09-15T04:31:44.744Z,99753.53
2022-09-15T04:33:48.517Z,99748.69
2022-09-15T04:35:51.494Z,99751.16
2022-09-15T04:37:55.495Z,99751.06
2022-09-15T04:39:58.425Z,99745.78
2022-09-15T04:42:05.201Z,99744.91
2022-09-15T04:44:08.133Z,99748.13
2022-09-15T04:46:15.089Z,99747.00
2022-09-15T04:48:19.518Z,99753.22
2022-09-15T04:50:22.441Z,99749.81
2022-09-15T04:52:25.398Z,99744.53
2022-09-15T04:54:28.241Z,99734.88
2022-09-15T04:56:31.195Z,99744.06
2022-09-15T04:58:37.473Z,99750.03
2022-09-15T05:00:43.622Z,99750.59
2022-09-15T05:02:46.730Z,99752.47
2022-09-15T05:04:51.634Z,99756.75
2022-09-15T05:06:54.623Z,99754.25
2022-09-15T05:08:59.286Z,99756.81
2022-09-15T05:11:03.248Z,99752.84
2022-09-15T05:13:06.129Z,99750.03
2022-09-15T05:15:09.458Z,99755.31
2022-09-15T05:17:12.360Z,99751.72
2022-09-15T05:19:15.304Z,99756.72
2022-09-15T05:21:21.772Z,99759.00
2022-09-15T05:23:25.531Z,99764.66
2022-09-15T05:25:28.812Z,99761.91
2022-09-15T05:27:32.676Z,99765.31
2022-09-15T05:29:35.549Z,99768.38
2022-09-15T05:31:38.446Z,99767.34
2022-09-15T05:33:41.489Z,99767.03
2022-09-15T05:35:51.410Z,99767.03
2022-09-15T05:37:55.651Z,99767.53
2022-09-15T05:39:59.513Z,99769.22
2022-09-15T05:42:07.020Z,99767.88
2022-09-15T05:44:13.480Z,99770.44
2022-09-15T05:46:17.339Z,99772.31
2022-09-15T05:48:20.335Z,99771.66
2022-09-15T05:50:23.281Z,99767.00
2022-09-15T05:52:26.173Z,99768.31
2022-09-15T05:54:30.871Z,99764.81
2022-09-15T05:56:34.123Z,99767.09
2022-09-15T05:58:37.021Z,99767.75
2022-09-15T06:00:40.327Z,99761.47
2022-09-15T06:02:43.330Z,99764.13
2022-09-15T06:04:46.181Z,99764.78
2022-09-15T06:06:49.178Z,99765.47
2022-09-15T06:08:58.007Z,99763.53
2022-09-15T06:11:05.152Z,99770.16
2022-09-15T06:13:09.130Z,99776.75
2022-09-15T06:15:13.016Z,99771.03
2022-09-15T06:17:16.018Z,99778.50
2022-09-15T06:19:19.430Z,99776.41
2022-09-15T06:21:23.800Z,99785.00
2022-09-15T06:23:26.678Z,99782.78
2022-09-15T06:25:29.625Z,99786.25
2022-09-15T06:27:34.052Z,99782.75
2022-09-15T06:29:37.000Z,99786.38
2022-09-15T06:31:40.517Z,99786.19
2022-09-15T06:33:44.981Z,99785.34
2022-09-15T06:35:47.930Z,99795.75
2022-09-15T06:37:51.750Z,99794.50
2022-09-15T06:39:54.695Z,99790.03
2022-09-15T06:42:05.891Z,99800.75
2022-09-15T06:44:12.570Z,99797.06
2022-09-15T06:46:17.481Z,99798.56
2022-09-15T06:48:24.910Z,99803.50
2022-09-15T06:50:28.246Z,99804.38
2022-09-15T06:52:31.151Z,99804.81
2022-09-15T06:54:34.715Z,99808.97
2022-09-15T06:56:38.401Z,99812.38
2022-09-15T06:58:43.077Z,99810.44
2022-09-15T07:00:47.469Z,99811.63
2022-09-15T07:02:50.773Z,99810.44
2022-09-15T07:04:53.735Z,99821.47
2022-09-15T07:06:56.662Z,99814.78
2022-09-15T07:09:00.529Z,99827.06
2022-09-15T07:11:04.296Z,99822.00
2022-09-15T07:13:07.314Z,99827.97
2022-09-15T07:15:11.674Z,99824.88
2022-09-15T07:17:15.962Z,99837.13
2022-09-15T07:19:18.782Z,99836.47
2022-09-15T07:21:22.184Z,99834.56
2022-09-15T07:23:25.410Z,99835.63
2022-09-15T07:25:28.297Z,99836.28
2022-09-15T07:27:31.921Z,99832.03
2022-09-15T07:29:37.730Z,99833.19
2022-09-15T07:31:41.535Z,99831.81
2022-09-15T07:33:45.910Z,99834.34
2022-09-15T07:35:48.906Z,99841.63
2022-09-15T07:37:52.050Z,99840.13
2022-09-15T07:39:55.045Z,99838.72
2022-09-15T07:41:57.949Z,99834.38
2022-09-15T07:44:01.618Z,99842.91
2022-09-15T07:46:05.274Z,99841.69
2022-09-15T07:48:08.299Z,99845.00
2022-09-15T07:50:14.324Z,99842.34
2022-09-15T07:52:17.266Z,99842.22
2022-09-15T07:54:22.857Z,99841.50
2022-09-15T07:56:26.966Z,99841.00
2022-09-15T07:58:29.886Z,99835.53
2022-09-15T08:00:32.858Z,99839.25
2022-09-15T08:02:35.825Z,99841.59
2022-09-15T08:04:38.815Z,99839.03
2022-09-15T08:06:43.061Z,99835.84
2022-09-15T08:08:46.166Z,99830.22
2022-09-15T08:10:49.050Z,99826.66
2022-09-15T08:12:52.359Z,99827.72
2022-09-15T08:14:55.288Z,99826.03
2022-09-15T08:17:00.966Z,99837.66
2022-09-15T08:19:03.904Z,99834.63
2022-09-15T08:21:12.302Z,99831.06
2022-09-15T08:23:16.589Z,99834.97
2022-09-15T08:25:19.465Z,99832.19
2022-09-15T08:27:22.662Z,99828.88
2022-09-15T08:29:25.817Z,99826.22
2022-09-15T08:31:28.906Z,99827.47
2022-09-15T08:33:31.892Z,99824.88
2022-09-15T08:35:36.838Z,99838.63
2022-09-15T08:37:39.924Z,99829.13
2022-09-15T08:39:46.675Z,99836.78
2022-09-15T08:41:51.605Z,99830.28
2022-09-15T08:43:59.295Z,99833.50
2022-09-15T08:46:06.138Z,99843.25
2022-09-15T08:48:11.080Z,99850.44
2022-09-15T08:50:23.047Z,99855.56
2022-09-15T08:52:31.884Z,99843.81
2022-09-15T08:54:35.224Z,99845.88
2022-09-15T08:56:40.041Z,99845.69
2022-09-15T08:58:42.963Z,99843.34
2022-09-15T09:00:47.285Z,99840.28
2022-09-15T09:03:17.254Z,99834.16
2022-09-15T09:05:32.818Z,99835.50
2022-09-15T09:07:59.747Z,99829.31
2022-09-15T09:10:08.096Z,99831.44
2022-09-15T09:12:22.398Z,99826.44
2022-09-15T09:14:34.478Z,99816.81
2022-09-15T09:16:45.606Z,99819.25
2022-09-15T09:19:17.815Z,99812.97
2022-09-15T09:21:24.151Z,99808.25
2022-09-15T09:23:29.821Z,99807.41
2022-09-15T09:25:32.784Z,99783.69
2022-09-15T09:27:38.921Z,99783.91
2022-09-15T09:29:44.902Z,99780.19
2022-09-15T09:31:50.250Z,99784.19
2022-09-15T09:33:56.573Z,99768.72
2022-09-15T09:36:03.247Z,99760.38
2022-09-15T09:38:06.221Z,99775.16
2022-09-15T09:40:14.262Z,99759.66
2022-09-15T09:42:19.129Z,99767.63
2022-09-15T09:44:31.727Z,99765.94
2022-09-15T09:46:35.068Z,99773.56
2022-09-15T09:48:38.004Z,99768.75
2022-09-15T09:50:43.202Z,99768.81
2022-09-15T09:52:46.494Z,99774.47
2022-09-15T09:54:51.601Z,99774.41
2022-09-15T09:56:56.870Z,99763.03
2022-09-15T09:58:59.876Z,99758.63
2022-09-15T10:01:15.527Z,99751.44
2022-09-15T10:03:20.725Z,99754.69
2022-09-15T10:05:23.969Z,99746.97
2022-09-15T10:07:27.849Z,99751.28
2022-09-15T10:09:33.372Z,99743.19
2022-09-15T10:11:41.487Z,99738.75
2022-09-15T10:13:52.143Z,99733.13
2022-09-15T10:15:56.703Z,99739.03
2022-09-15T10:18:01.703Z,99742.66
2022-09-15T10:20:07.199Z,99740.81
2022-09-15T10:22:10.296Z,99744.13
2022-09-15T10:24:33.741Z,99744.53
2022-09-15T10:26:36.662Z,99745.22
2022-09-15T10:28:39.626Z,99738.78
2022-09-15T10:31:00.531Z,99736.75
2022-09-15T10:33:19.759Z,99734.16
2022-09-15T10:35:22.763Z,99740.41
2022-09-15T10:37:28.962Z,99746.72
2022-09-15T10:39:40.017Z,99740.94
2022-09-15T10:41:47.282Z,99749.16
2022-09-15T10:44:05.532Z,99750.09
2022-09-15T10:46:14.557Z,99749.03
2022-09-15T10:48:38.335Z,99743.06
2022-09-15T10:50:48.915Z,99749.63
2022-09-15T10:53:02.959Z,99752.38
2022-09-15T10:55:31.900Z,99758.44
2022-09-15T10:57:55.014Z,99762.63
2022-09-15T11:00:05.495Z,99773.34
2022-09-15T11:02:34.464Z,99780.91
2022-09-15T11:04:58.436Z,99791.84
2022-09-15T11:07:05.008Z,99797.16
2022-09-15T11:09:16.326Z,99821.94
2022-09-15T11:11:26.827Z,99829.94
2022-09-15T11:13:34.413Z,99842.28
2022-09-15T11:15:52.548Z,99839.09
2022-09-15T11:18:08.007Z,99845.59
2022-09-15T11:20:23.873Z,99852.84
2022-09-15T11:22:29.347Z,99850.19
2022-09-15T11:24:39.056Z,99848.91
2022-09-15T11:26:45.360Z,99852.50
2022-09-15T11:28:53.745Z,99846.47
2022-09-15T11:31:01.031Z,99845.34
2022-09-15T11:33:06.688Z,99845.50
2022-09-15T11:35:37.460Z,99849.56
2022-09-15T11:37:42.511Z,99852.06
2022-09-15T11:39:51.011Z,99848.56
2022-09-15T11:41:56.648Z,99851.34
2022-09-15T11:44:10.131Z,99852.25
2022-09-15T11:46:19.900Z,99857.63
2022-09-15T11:48:28.538Z,99865.63
2022-09-15T11:50:36.511Z,99862.84
2022-09-15T11:52:50.558Z,99850.50
2022-09-15T11:55:00.941Z,99846.59
2022-09-15T11:57:04.296Z,99838.75
2022-09-15T11:59:16.639Z,99843.97
2022-09-15T12:01:21.225Z,99832.25
2022-09-15T12:03:28.930Z,99831.06
2022-09-15T12:05:37.877Z,99817.44
2022-09-15T12:07:46.721Z,99807.38
2022-09-15T12:09:49.900Z,99812.44
2022-09-15T12:11:54.173Z,99801.91
2022-09-15T12:13:59.486Z,99803.44
2022-09-15T12:16:04.069Z,99787.41
2022-09-15T12:18:34.869Z,99785.88
2022-09-15T12:20:44.446Z,99792.34
2022-09-15T12:22:52.397Z,99783.63
2022-09-15T12:25:01.212Z,99777.72
2022-09-15T12:27:05.992Z,99776.84
2022-09-15T12:29:41.898Z,99778.72
2022-09-15T12:31:46.991Z,99778.38
2022-09-15T12:33:55.950Z,99774.47
2022-09-15T12:36:39.102Z,99776.84
2022-09-15T12:38:49.017Z,99779.88
2022-09-15T12:40:58.001Z,99774.59
2022-09-15T12:43:01.929Z,99778.34
2022-09-15T12:45:06.781Z,99775.16
2022-09-15T12:47:20.030Z,99768.97
2022-09-15T12:49:28.837Z,99784.28
2022-09-15T12:51:33.530Z,99776.69
2022-09-15T12:53:39.607Z,99775.31
2022-09-15T12:55:50.146Z,99781.03
2022-09-15T12:57:55.261Z,99768.38
2022-09-15T13:00:29.880Z,99767.25
2022-09-15T13:02:46.758Z,99779.25
2022-09-15T13:04:54.375Z,99779.72
2022-09-15T13:07:32.634Z,99785.03
2022-09-15T13:09:44.813Z,99780.28
2022-09-15T13:11:51.136Z,99770.59
2022-09-15T13:13:56.339Z,99777.19
2022-09-15T13:15:59.479Z,99772.00
2022-09-15T13:18:05.212Z,99770.44
2022-09-15T13:20:11.861Z,99766.53
2022-09-15T13:22:20.263Z,99765.97
2022-09-15T13:24:35.865Z,99764.06
2022-09-15T13:26:39.760Z,99763.03
2022-09-15T13:28:44.764Z,99761.78
2022-09-15T13:30:58.557Z,99765.03
2022-09-15T13:33:06.030Z,99754.91
2022-09-15T13:35:48.404Z,99754.03
2022-09-15T13:38:31.628Z,99753.09
2022-09-15T13:40:50.000Z,99748.59
2022-09-15T13:43:04.978Z,99751.00
2022-09-15T13:45:27.800Z,99742.50
2022-09-15T13:47:42.526Z,99743.91
2022-09-15T13:49:53.028Z,99747.50
2022-09-15T13:51:59.879Z,99754.28
2022-09-15T13:54:04.263Z,99741.09
2022-09-15T13:56:13.437Z,99737.75
2022-09-15T14:00:48.298Z,99731.31
2022-09-15T14:02:54.194Z,99723.72
2022-09-15T14:04:59.423Z,99725.25
2022-09-15T14:07:02.807Z,99723.00
2022-09-15T14:09:09.165Z,99729.91
2022-09-15T14:11:18.346Z,99723.75
2022-09-15T14:13:23.218Z,99723.97
2022-09-15T14:15:27.276Z,99715.97
2022-09-15T14:17:32.009Z,99721.63
2022-09-15T14:19:36.511Z,99719.22
2022-09-15T14:21:49.053Z,99720.59
2022-09-15T14:23:54.924Z,99727.63
2022-09-15T14:26:00.364Z,99733.44
2022-09-15T14:28:05.686Z,99735.31
2022-09-15T14:30:17.387Z,99726.47
2022-09-15T14:32:20.419Z,99731.81
2022-09-15T14:34:25.491Z,99725.69
2022-09-15T14:36:31.332Z,99726.19
2022-09-15T14:38:36.298Z,99730.44
2022-09-15T14:40:41.360Z,99737.63
2022-09-15T14:42:44.680Z,99735.13
2022-09-15T14:47:13.451Z,99735.75
2022-09-15T14:49:16.689Z,99726.72
2022-09-15T14:51:22.673Z,99742.06
2022-09-15T14:53:26.569Z,99734.16
2022-09-15T14:55:30.960Z,99726.94
2022-09-15T14:57:35.198Z,99737.91
2022-09-15T14:59:40.217Z,99737.75
2022-09-15T15:01:49.358Z,99742.25
2022-09-15T15:03:57.584Z,99744.97
2022-09-15T15:06:25.425Z,99743.81
2022-09-15T15:08:34.085Z,99741.13
2022-09-15T15:10:37.849Z,99744.66
2022-09-15T15:12:43.055Z,99743.50
2022-09-15T15:14:46.207Z,99751.41
2022-09-15T15:16:57.713Z,99746.41
2022-09-15T15:19:00.857Z,99751.34
2022-09-15T15:21:04.098Z,99747.00
2022-09-15T15:23:16.601Z,99742.50
2022-09-15T15:25:24.963Z,99743.81
2022-09-15T15:27:43.280Z,99745.13
2022-09-15T15:29:47.192Z,99750.44
2022-09-15T15:31:50.187Z,99751.50
2022-09-15T15:33:57.165Z,99750.22
2022-09-15T15:36:06.302Z,99749.25
2022-09-15T15:38:16.394Z,99745.38
2022-09-15T15:40:23.148Z,99749.09
2022-09-15T15:42:28.501Z,99752.97
2022-09-15T15:44:33.743Z,99746.72
2022-09-15T15:46:50.806Z,99749.38
2022-09-15T15:48:56.089Z,99757.69
2022-09-15T15:50:59.574Z,99763.47
2022-09-15T15:53:02.806Z,99757.97
2022-09-15T15:55:07.242Z,99760.53
2022-09-15T15:57:22.563Z,99759.56
2022-09-15T15:59:26.202Z,99757.59
2022-09-15T16:01:30.019Z,99759.09
2022-09-15T16:03:34.507Z,99767.31
2022-09-15T16:05:39.254Z,99774.84
2022-09-15T16:07:44.687Z,99790.03
2022-09-15T16:09:47.981Z,99800.22
2022-09-15T16:11:51.176Z,99809.94
2022-09-15T16:13:54.381Z,99815.34
2022-09-15T16:16:00.083Z,99819.97
2022-09-15T16:18:04.157Z,99831.81
2022-09-15T16:20:07.981Z,99825.75
2022-09-15T16:22:17.379Z,99811.16
2022-09-15T16:24:20.382Z,99822.09
2022-09-15T16:26:24.975Z,99814.97
2022-09-15T16:28:28.667Z,99814.00
2022-09-15T16:30:32.029Z,99807.75
2022-09-15T16:32:35.384Z,99814.78
2022-09-15T16:34:38.377Z,99817.88
2022-09-15T16:36:41.328Z,99823.34
2022-09-15T16:38:46.270Z,99824.06
2022-09-15T16:40:49.654Z,99825.31
2022-09-15T16:42:52.592Z,99824.72
2022-09-15T16:44:55.491Z,99831.00
2022-09-15T16:46:58.361Z,99820.06
2022-09-15T16:49:01.364Z,99829.13
2022-09-15T16:53:27.615Z,99840.19
2022-09-15T16:55:36.978Z,99839.56
2022-09-15T16:57:39.887Z,99846.63
2022-09-15T16:59:42.924Z,99845.22
2022-09-15T17:01:46.151Z,99854.16
2022-09-15T17:03:50.489Z,99845.50
2022-09-15T17:05:54.517Z,99845.28
2022-09-15T17:07:57.621Z,99862.16
2022-09-15T17:10:01.417Z,99851.31
2022-09-15T17:12:06.491Z,99857.16
2022-09-15T17:14:11.300Z,99861.72
2022-09-15T17:16:16.125Z,99856.13
2022-09-15T17:18:19.138Z,99855.66
2022-09-15T17:20:23.149Z,99858.78
2022-09-15T17:22:26.068Z,99856.47
2022-09-15T17:24:29.618Z,99853.13
2022-09-15T17:26:32.873Z,99847.28
2022-09-15T17:28:37.768Z,99849.00
2022-09-15T17:30:40.662Z,99845.09
2022-09-15T17:32:43.789Z,99840.94
2022-09-15T17:34:46.915Z,99839.66
2022-09-15T17:36:49.954Z,99833.16
2022-09-15T17:38:53.014Z,99839.44
2022-09-15T17:40:56.693Z,99837.13
2022-09-15T17:43:00.622Z,99834.56
2022-09-15T17:45:14.710Z,99840.19
2022-09-15T17:47:17.740Z,99840.66
2022-09-15T17:49:20.682Z,99838.19
2022-09-15T17:51:25.117Z,99839.25
2022-09-15T17:53:30.893Z,99842.03
2022-09-15T17:55:34.561Z,99849.06
2022-09-15T17:57:37.469Z,99851.41
2022-09-15T17:59:40.828Z,99844.38
2022-09-15T18:01:46.498Z,99849.59
2022-09-15T18:03:50.084Z,99860.47
2022-09-15T18:05:53.419Z,99858.31
2022-09-15T18:07:57.806Z,99862.22
2022-09-15T18:10:03.590Z,99866.06
2022-09-15T18:12:06.514Z,99868.63
2022-09-15T18:14:10.024Z,99869.81
2022-09-15T18:16:16.228Z,99875.25
2022-09-15T18:18:21.766Z,99875.53
2022-09-15T18:20:26.418Z,99883.72
2022-09-15T18:22:29.560Z,99884.16
2022-09-15T18:24:32.638Z,99887.44
2022-09-15T18:26:35.909Z,99889.94
2022-09-15T18:28:39.084Z,99890.94
2022-09-15T18:30:43.930Z,99907.00
2022-09-15T18:32:47.255Z,99899.03
2022-09-15T18:34:51.786Z,99896.88
2022-09-15T18:36:54.855Z,99897.09
2022-09-15T18:38:58.131Z,99904.97
2022-09-15T18:41:01.540Z,99900.44
2022-09-15T18:43:05.509Z,99898.75
2022-09-15T18:45:10.496Z,99907.28
2022-09-15T18:47:13.411Z,99916.19
2022-09-15T18:49:16.784Z,99904.84
2022-09-15T18:51:29.132Z,99915.06
2022-09-15T18:53:37.956Z,99917.06
2022-09-15T18:55:41.739Z,99922.28
2022-09-15T18:57:45.134Z,99919.34
2022-09-15T18:59:48.157Z,99922.69
2022-09-15T19:01:51.156Z,99926.66
2022-09-15T19:03:54.266Z,99925.78
2022-09-15T19:05:57.347Z,99935.66
2022-09-15T19:08:02.485Z,99939.94
2022-09-15T19:10:06.384Z,99946.94
2022-09-15T19:12:09.708Z,99943.84
2022-09-15T19:14:12.757Z,99939.78
2022-09-15T19:16:15.937Z,99930.44
2022-09-15T19:18:19.031Z,99929.69
2022-09-15T19:20:22.671Z,99921.44
2022-09-15T19:22:25.608Z,99918.84
2022-09-15T19:24:33.591Z,99915.47
2022-09-15T19:26:37.359Z,99919.28
2022-09-15T19:28:40.602Z,99921.72
2022-09-15T19:30:44.013Z,99920.78
2022-09-15T19:32:47.292Z,99928.22
2022-09-15T19:34:50.538Z,99927.44
2022-09-15T19:36:53.471Z,99935.31
2022-09-15T19:38:56.877Z,99926.25
2022-09-15T19:41:05.215Z,99932.03
2022-09-15T19:43:08.132Z,99937.69
2022-09-15T19:45:12.387Z,99942.09
2022-09-15T19:47:15.383Z,99937.38
2022-09-15T19:49:18.315Z,99940.59
2022-09-15T19:51:21.557Z,99944.97
2022-09-15T19:53:24.563Z,99942.50
2022-09-15T19:55:30.812Z,99949.03
2022-09-15T19:57:35.559Z,99944.28
2022-09-15T19:59:38.525Z,99947.22
2022-09-15T20:01:41.503Z,99952.72
2022-09-15T20:03:44.479Z,99956.53
2022-09-15T20:05:50.837Z,99951.19
2022-09-15T20:07:53.715Z,99952.81
2022-09-15T20:09:58.741Z,99945.72
2022-09-15T20:12:03.220Z,99949.72
2022-09-15T20:14:07.668Z,99952.34
2022-09-15T20:16:19.101Z,99950.63
2022-09-15T20:18:23.091Z,99952.91
2022-09-15T20:20:26.262Z,99951.19
2022-09-15T20:22:29.198Z,99956.16
2022-09-15T20:24:32.180Z,99950.63
2022-09-15T20:26:36.704Z,99946.84
2022-09-15T20:28:39.979Z,99950.44
2022-09-15T20:30:44.313Z,99949.50
2022-09-15T20:32:47.385Z,99957.25
2022-09-15T20:34:51.962Z,99960.41
2022-09-15T20:36:56.725Z,99962.97
2022-09-15T20:38:59.598Z,99972.63
2022-09-15T20:41:03.513Z,99966.38
2022-09-15T20:43:06.404Z,99968.09
2022-09-15T20:45:10.398Z,99973.41
2022-09-15T20:47:15.098Z,99970.38
2022-09-15T20:49:18.215Z,99976.44
2022-09-15T20:51:22.811Z,99969.97
2022-09-15T20:53:26.255Z,99982.31
2022-09-15T20:55:29.499Z,99979.75
2022-09-15T20:57:32.407Z,99982.59
2022-09-15T20:59:35.262Z,99978.91
2022-09-15T21:01:39.652Z,99981.56
2022-09-15T21:03:45.393Z,99978.91
2022-09-15T21:05:48.328Z,99976.53
2022-09-15T21:07:52.040Z,99975.69
2022-09-15T21:09:55.224Z,99969.31
2022-09-15T21:11:58.161Z,99969.97
2022-09-15T21:14:01.640Z,99977.19
2022-09-15T21:16:15.091Z,99970.88
2022-09-15T21:18:18.362Z,99980.81
2022-09-15T21:20:22.586Z,99978.97
2022-09-15T21:22:25.833Z,99979.69
2022-09-15T21:24:28.733Z,99987.56
2022-09-15T21:26:33.314Z,99981.19
2022-09-15T21:28:36.434Z,99984.81
2022-09-15T21:30:39.836Z,99986.50
2022-09-15T21:32:42.699Z,99987.56
2022-09-15T21:34:46.519Z,99984.81
2022-09-15T21:36:50.912Z,99982.81
2022-09-15T21:38:54.962Z,99986.22
2022-09-15T21:40:57.918Z,99987.25
2022-09-15T21:43:01.363Z,99983.56
2022-09-15T21:45:04.909Z,99994.88
2022-09-15T21:47:08.086Z,99989.56
2022-09-15T21:49:11.617Z,99992.22
2022-09-15T21:51:23.466Z,100000.19
2022-09-15T21:53:29.587Z,99997.41
2022-09-15T21:55:32.483Z,100003.78
2022-09-15T21:57:35.368Z,99998.56
2022-09-15T21:59:39.214Z,100007.38
2022-09-15T22:01:42.244Z,99995.25
2022-09-15T22:03:45.356Z,100001.31
2022-09-15T22:05:48.476Z,100002.81
2022-09-15T22:07:51.394Z,100003.03
2022-09-15T22:09:56.356Z,100003.13
2022-09-15T22:11:59.315Z,100001.22
2022-09-15T22:14:03.041Z,100005.47
2022-09-15T22:16:16.534Z,100008.53
2022-09-15T22:18:19.561Z,100000.81
2022-09-15T22:20:22.514Z,100005.13
2022-09-15T22:22:25.837Z,100004.81
2022-09-15T22:24:28.901Z,100014.28
2022-09-15T22:26:35.026Z,100018.59
2022-09-15T22:28:38.181Z,100012.97
2022-09-15T22:30:41.117Z,100011.06
2022-09-15T22:32:44.083Z,100008.22
2022-09-15T22:34:47.058Z,100003.66
2022-09-15T22:36:49.974Z,100017.59
2022-09-15T22:38:53.463Z,100018.28
2022-09-15T22:40:56.812Z,100025.09
2022-09-15T22:43:01.153Z,100029.38
2022-09-15T22:45:05.058Z,100016.84
2022-09-15T22:47:08.060Z,100019.59
2022-09-15T22:49:11.083Z,100014.50
2022-09-15T22:51:16.806Z,100020.38
2022-09-15T22:53:19.793Z,100015.34
2022-09-15T22:55:23.002Z,100017.25
2022-09-15T22:57:25.876Z,100012.75
2022-09-15T22:59:30.919Z,100016.78
2022-09-15T23:01:33.952Z,100017.41
2022-09-15T23:03:37.475Z,100013.81
2022-09-15T23:05:40.420Z,100013.81
2022-09-15T23:07:43.410Z,100010.41
2022-09-15T23:09:46.342Z,100015.72
2022-09-15T23:11:49.525Z,100011.28
2022-09-15T23:13:53.473Z,100013.72
2022-09-15T23:15:57.820Z,100009.53
2022-09-15T23:18:00.858Z,100018.47
2022-09-15T23:20:05.552Z,100015.25
2022-09-15T23:22:08.489Z,100011.34
2022-09-15T23:24:12.471Z,100013.31
2022-09-15T23:26:17.255Z,100002.31
2022-09-15T23:28:20.382Z,100001.75
2022-09-15T23:30:23.519Z,100007.16
2022-09-15T23:32:27.848Z,100004.25
2022-09-15T23:34:30.744Z,100000.72
2022-09-15T23:36:33.601Z,99994.94
2022-09-15T23:38:44.163Z,100001.47
2022-09-15T23:40:48.409Z,100000.59
2022-09-15T23:42:51.634Z,100003.44
2022-09-15T23:44:54.532Z,100016.00
2022-09-15T23:50:33.862Z,100007.56
2022-09-15T23:52:36.825Z,100016.22
2022-09-15T23:58:14.337Z,100017.09
